ADDS METAR Data INFO
IDs: Format: Raw Decoded Include TAF

Data at: 0457 UTC 23 May 2017

KERV 230435Z AUTO 35003KT 10SM CLR 18/17 A2999 RMK AO2 T01760169
KERV 230415Z AUTO 30003KT 10SM CLR 18/17 A2998 RMK AO2 T01770169
KERV 230355Z AUTO 00000KT 10SM CLR 18/17 A2996 RMK AO2 T01800170
KERV 230335Z AUTO 00000KT 10SM CLR 19/18 A2995 RMK AO2 T01900177
KERV 230315Z AUTO 00000KT 10SM CLR 19/18 A2995 RMK AO2 T01900176
KERV 230255Z AUTO 00000KT 10SM CLR 20/18 A2995 RMK AO2 T01950180
KERV 230235Z AUTO 00000KT 10SM SCT026 20/19 A2994 RMK AO2 T02030186
KERV 230215Z AUTO 09004KT 10SM OVC026 21/19 A2993 RMK AO2 T02050187
KERV 230155Z AUTO 08007KT 10SM OVC026 21/19 A2993 RMK AO2 T02050186
KERV 230135Z AUTO 05004KT 10SM OVC026 22/20 A2993 RMK AO2 T02200196
KERV 230115Z AUTO 07005KT 10SM SCT024 BKN028 OVC038 22/20 A2992 RMK AO2 T02200195
KERV 230055Z AUTO 06007KT 10SM BKN028 OVC038 22/19 A2992 RMK AO2 LTG DSNT N T02200192
KERV 230035Z AUTO 08007KT 10SM OVC026 22/19 A2993 RMK AO2 T02200191
KERV 230015Z AUTO 05006KT 10SM OVC028 23/20 A2993 RMK AO2 T02260196
KERV 222355Z AUTO 08007KT 10SM BKN026 OVC031 23/20 A2993 RMK AO2 T02330196 10255 20198
KERV 222335Z AUTO 07006KT 10SM BKN024 OVC029 24/20 A2992 RMK AO2 T02420204
KERV 222315Z AUTO 07006KT 10SM OVC028 25/21 A2993 RMK AO2 T02470205
KERV 222255Z AUTO 07006KT 10SM OVC028 25/20 A2993 RMK AO2 T02470201
KERV 222235Z AUTO 06006KT 10SM OVC026 25/20 A2993 RMK AO2 T02480199
KERV 222215Z AUTO 05006KT 10SM OVC022 25/21 A2993 RMK AO2 T02470205
KERV 222155Z AUTO 08006KT 10SM OVC022 25/20 A2994 RMK AO2 T02470202
KERV 222135Z AUTO 08004KT 10SM OVC020 25/20 A2995 RMK AO2 T02470202
KERV 222115Z AUTO 06006KT 10SM OVC020 25/21 A2995 RMK AO2 T02470206
KERV 222055Z AUTO 05005KT 10SM OVC020 25/21 A2996 RMK AO2 T02470208
KERV 222035Z AUTO 11005KT 10SM OVC018 25/21 A2997 RMK AO2 T02470207
KERV 222015Z AUTO 12007KT 10SM OVC016 23/20 A2998 RMK AO2 T02330196
KERV 221955Z AUTO 11004KT 10SM OVC014 23/20 A2998 RMK AO2 T02330200
KERV 221935Z AUTO 06005KT 10SM OVC014 22/19 A2999 RMK AO2 T02200193
KERV 221915Z AUTO 04006KT 10SM OVC012 22/20 A3000 RMK AO2 T02200195
KERV 221855Z AUTO 03005KT 10SM OVC010 21/18 A3001 RMK AO2 T02050184
KERV 221835Z AUTO 05005KT 10SM OVC010 21/19 A3001 RMK AO2 T02050186
KERV 221815Z AUTO 06003KT 10SM OVC010 21/19 A3002 RMK AO2 T02050187
KERV 221755Z AUTO 06003KT 10SM OVC008 20/18 A3002 RMK AO2 T01970180 10197 20162
KERV 221735Z AUTO 08005KT 10SM OVC008 19/18 A3002 RMK AO2 LTG DSNT SE T01900175
KERV 221715Z AUTO 08004KT 10SM OVC008 19/18 A3003 RMK AO2 T01900175
KERV 221655Z AUTO 08004KT 10SM OVC008 19/17 A3003 RMK AO2 T01870173
KERV 221635Z AUTO 07006KT 10SM OVC008 18/17 A3004 RMK AO2 T01830170
KERV 221615Z AUTO 06005KT 10SM OVC008 18/17 A3004 RMK AO2 T01830170
KERV 221555Z AUTO 06006KT 10SM OVC008 18/17 A3004 RMK AO2 T01820170
KERV 221535Z AUTO 03004KT 10SM OVC006 18/17 A3004 RMK AO2 T01770166
KERV 221515Z AUTO 07004KT 10SM OVC006 17/16 A3005 RMK AO2 T01720163
KERV 221455Z AUTO 05003KT 5SM BR OVC006 17/16 A3005 RMK AO2 T01700161
KERV 221435Z AUTO 05003KT 7SM OVC006 17/16 A3005 RMK AO2 T01660158
KERV 221415Z AUTO 00000KT 5SM BR OVC006 16/16 A3005 RMK AO2 T01620155
KERV 221355Z AUTO 04004KT 3SM BR OVC006 16/16 A3005 RMK AO2 T01620155
KERV 221335Z AUTO 00000KT 10SM OVC006 16/16 A3005 RMK AO2 T01620155
KERV 221315Z AUTO 02004KT 7SM OVC006 16/16 A3005 RMK AO2 T01620155
KERV 221255Z AUTO 00000KT 7SM OVC006 16/16 A3005 RMK AO2 T01620155
KERV 221235Z AUTO 02004KT 10SM OVC006 16/16 A3004 RMK AO2 T01620155
KERV 221215Z AUTO 36003KT 10SM OVC006 16/16 A3003 RMK AO2 T01620155
KERV 221155Z AUTO 00000KT 10SM OVC006 16/15 A3004 RMK AO2 70015 T01620153 10170 20162
KERV 221135Z AUTO 00000KT 10SM OVC008 16/15 A3004 RMK AO2 T01620153
KERV 221115Z AUTO 00000KT 10SM OVC008 16/15 A3004 RMK AO2 T01620153
KERV 221055Z AUTO 00000KT 10SM OVC008 16/15 A3004 RMK AO2 T01620152
KERV 221035Z AUTO 03003KT 10SM OVC008 16/15 A3005 RMK AO2 T01620152
KERV 221015Z AUTO 01003KT 10SM OVC010 16/15 A3005 RMK AO2 T01620153
KERV 220955Z AUTO 00000KT 10SM OVC010 16/15 A3006 RMK AO2 T01630153
KERV 220935Z AUTO 01003KT 10SM OVC010 16/15 A3007 RMK AO2 LTG DSNT SE T01640154
KERV 220915Z AUTO 03003KT 10SM OVC010 17/16 A3007 RMK AO2 T01660156
KERV 220855Z AUTO 03003KT 10SM OVC010 17/16 A3007 RMK AO2 T01700160
KERV 220835Z AUTO 36003KT 10SM OVC014 17/16 A3007 RMK AO2 T01660158
KERV 220815Z AUTO 31003KT 10SM OVC014 17/16 A3008 RMK AO2 LTG DSNT S T01650156
KERV 220755Z AUTO 00000KT 10SM OVC014 16/16 A3007 RMK AO2 LTG DSNT SE T01620155
KERV 220735Z AUTO 00000KT 10SM OVC012 16/15 A3008 RMK AO2 LTG DSNT SE AND S T01620153
KERV 220715Z AUTO 00000KT 10SM OVC010 16/15 A3008 RMK AO2 T01620153
KERV 220655Z AUTO 00000KT 10SM OVC008 16/15 A3008 RMK AO2 T01620153
KERV 220635Z AUTO 00000KT 10SM SCT008 OVC013 16/16 A3008 RMK AO2 LTG DSNT S T01620155
KERV 220615Z AUTO 00000KT 10SM OVC015 16/16 A3008 RMK AO2 T01620155
KERV 220555Z AUTO 01004KT 10SM SCT009 OVC015 16/15 A3007 RMK AO2 60002 T01620153 10162 20152 402200152
KERV 220535Z AUTO 33006KT 10SM -RA BKN007 16/15 A3009 RMK AO2 LTG DSNT S T01570149
KERV 220515Z AUTO 00000KT 10SM CLR 15/14 A3006 RMK AO2 T01520144
KERV 220455Z AUTO 00000KT 10SM SCT010 SCT041 16/15 A3008 RMK AO2 P0001 T01550146
KERV 220435Z AUTO 33005KT 10SM -DZ SCT010 SCT120 16/15 A3010 RMK AO2 T01550147
KERV 220415Z AUTO 07003KT 10SM RA BKN110 16/15 A3010 RMK AO2 T01550147
KERV 220355Z AUTO 00000KT 10SM RA OVC110 16/15 A3011 RMK AO2 T01610154
KERV 220335Z AUTO 11003KT 10SM OVC110 16/15 A3008 RMK AO2 T01550147
KERV 220315Z AUTO 10004KT 10SM BKN120 16/15 A3009 RMK AO2 T01600151
KERV 220255Z AUTO 00000KT 10SM BKN120 16/15 A3009 RMK AO2 P0001 60001 T01550146
KERV 220235Z AUTO 33005KT 10SM SCT120 16/15 A3007 RMK AO2 LTG DSNT SE T01550145
KERV 220215Z AUTO 35006KT 10SM RA SCT018 SCT042 BKN090 16/15 A3006 RMK AO2 T01550145
KERV 220155Z AUTO 00000KT 10SM RA BKN018 BKN040 OVC060 16/15 A3010 RMK AO2 T01620151
KERV 220135Z AUTO 32003KT 10SM OVC020 16/15 A3010 RMK AO2 LTG DSNT SE AND S T01620151
KERV 220115Z AUTO 25003KT 10SM SCT023 BKN075 BKN110 16/15 A3010 RMK AO2 LTG DSNT E AND S T01620151
KERV 220055Z AUTO 31009KT 10SM VCTS SCT033 SCT050 BKN075 16/15 A3008 RMK AO2 LTG DSNT E THRU S T01560146
KERV 220035Z AUTO 07009G21KT 10SM -VCTSRA SCT050 BKN070 OVC110 16/15 A3005 RMK AO2 LTG DSNT SE AND S T01620148
KERV 220015Z AUTO 03008KT 10SM DZ SCT026 BKN055 OVC100 16/15 A3008 RMK AO2 LTG DSNT S T01620150
KERV 212355Z AUTO 31006KT 10SM -RA OVC024 16/15 A3011 RMK AO2 LTG DSNT S AND SW P0004 60013 T01620150 10220 20162
KERV 212335Z AUTO 36010KT 7SM +RA OVC024 16/15 A3010 RMK AO2 LTG DSNT E AND SW P0002 T01620147
KERV 212315Z AUTO 35008KT 10SM -RA SCT024 BKN036 OVC065 17/15 A3009 RMK AO2 LTG DSNT E T01660152
KERV 212255Z AUTO 34008KT 10SM -RA SCT022 BKN040 OVC060 17/16 A3008 RMK AO2 LTG DSNT NE AND E P0007 T01700157
KERV 212235Z AUTO 00000KT 4SM RA BKN022 OVC090 18/16 A3011 RMK AO2 P0005 T01760161
KERV 212215Z AUTO 36004KT 10SM -RA BKN022 BKN034 OVC100 18/16 A3009 RMK AO2 LTG DSNT NW THRU NE P0001 T01760162
KERV 212155Z AUTO 02007KT 10SM -RA OVC022 18/17 A3009 RMK AO2 LTG DSNT NE P0002 T01820165
KERV 212135Z AUTO 01007KT 10SM -VCTSRA OVC022 18/17 A3008 RMK AO2 LTG DSNT S P0002 T01810165
KERV 212115Z AUTO 32007KT 7SM RA OVC022 19/17 A3008 RMK AO2 LTG DSNT NE AND W P0001 T01900168
KERV 212055Z AUTO 02007KT 10SM -RA OVC022 21/17 A3007 RMK AO2 LTG DSNT ALQS T02050172
KERV 212035Z AUTO 06007KT 10SM -RA BKN022 OVC038 22/17 A3007 RMK AO2 LTG DSNT ALQS T02200171
KERV 212015Z AUTO 05004KT 10SM OVC022 22/17 A3009 RMK AO2 LTG DSNT NW T02200167
KERV 211955Z AUTO 06006KT 10SM VCTS OVC022 22/17 A3008 RMK AO2 LTG DSNT N AND S T02200165
KERV 211935Z AUTO 04010KT 10SM VCTS OVC022 22/16 A3008 RMK AO2 LTG DSNT S THRU NW T02200164
KERV 211915Z AUTO 04007KT 10SM VCTS OVC022 22/17 A3011 RMK AO2 LTG DSNT SW T02200165
KERV 211855Z AUTO 03006KT 10SM OVC022 22/17 A3011 RMK AO2 LTG DSNT SE AND SW T02200167
KERV 211835Z AUTO 03005KT 10SM OVC022 22/17 A3011 RMK AO2 T02200168
KERV 211815Z AUTO 06005KT 10SM OVC022 22/17 A3010 RMK AO2 LTG DSNT SW AND NW T02200166
KERV 211755Z AUTO 04012KT 10SM OVC022 22/17 A3010 RMK AO2 T02200166 10220 20205
KERV 211735Z AUTO 07009G14KT 10SM OVC022 22/17 A3010 RMK AO2 LTG DSNT NW T02200169
KERV 211715Z AUTO 05009KT 10SM OVC020 22/17 A3010 RMK AO2 T02200170


Page loaded:  04:57 UTC  |   09:57 PM Pacific  |   10:57 PM Mountain  |   11:57 PM Central  |   12:57 AM Eastern

 

ADVISORIES

FORECASTS

FORECASTS

OBSERVATIONS

USER TOOLS

ABOUT US